createdAt,value
2019-05-25T00:00:38.133Z,0
2019-05-25T00:01:38.669Z,0
2019-05-25T00:02:39.131Z,0
2019-05-25T00:03:39.833Z,0
2019-05-25T00:04:41.204Z,0
2019-05-25T00:05:40.629Z,0
2019-05-25T00:06:41.148Z,0
2019-05-25T00:07:41.561Z,0
2019-05-25T00:08:41.998Z,0
2019-05-25T00:09:42.413Z,0
2019-05-25T00:10:42.808Z,0
2019-05-25T00:11:43.036Z,0
2019-05-25T00:12:43.437Z,0
2019-05-25T00:13:44.170Z,0
2019-05-25T00:14:44.884Z,0
2019-05-25T00:15:45.594Z,0
2019-05-25T00:16:46.319Z,0
2019-05-25T00:17:46.745Z,0
2019-05-25T00:18:47.474Z,0
2019-05-25T00:19:47.649Z,0
2019-05-25T00:20:48.361Z,0
2019-05-25T00:21:49.198Z,0
2019-05-25T00:22:49.621Z,0
2019-05-25T00:23:50.029Z,0
2019-05-25T00:24:50.146Z,0
2019-05-25T00:25:51.460Z,0
2019-05-25T00:26:51.425Z,0
2019-05-25T00:27:51.847Z,0
2019-05-25T00:28:52.541Z,0
2019-05-25T00:29:52.936Z,0
2019-05-25T00:30:53.350Z,0
2019-05-25T00:31:54.874Z,0
2019-05-25T00:32:55.586Z,0
2019-05-25T00:33:56.061Z,0
2019-05-25T00:34:56.458Z,0
2019-05-25T00:35:57.155Z,0
2019-05-25T00:36:57.567Z,0
2019-05-25T00:37:58.032Z,0
2019-05-25T00:38:58.158Z,0
2019-05-25T00:39:58.584Z,0
2019-05-25T00:40:59.585Z,0
2019-05-25T00:41:59.242Z,0
2019-05-25T00:42:59.642Z,0
2019-05-25T00:44:00.609Z,0
2019-05-25T00:45:01.328Z,0
2019-05-25T00:46:02.096Z,0
2019-05-25T00:47:02.509Z,0
2019-05-25T00:48:02.912Z,0
2019-05-25T00:49:03.637Z,0
2019-05-25T00:50:04.623Z,0
2019-05-25T00:51:05.034Z,0
2019-05-25T00:52:05.329Z,0
2019-05-25T00:53:05.448Z,0
2019-05-25T00:54:05.841Z,0
2019-05-25T00:55:06.551Z,0
2019-05-25T00:56:06.662Z,0
2019-05-25T00:57:07.092Z,0
2019-05-25T00:58:07.210Z,0
2019-05-25T00:59:08.197Z,0
2019-05-25T01:00:08.905Z,0
2019-05-25T01:01:10.141Z,0
2019-05-25T01:02:10.397Z,0
2019-05-25T01:03:10.996Z,0
2019-05-25T01:04:11.122Z,0
2019-05-25T01:05:11.533Z,0
2019-05-25T01:06:11.981Z,0
2019-05-25T01:07:12.384Z,0
2019-05-25T01:08:13.350Z,0
2019-05-25T01:09:14.036Z,0
2019-05-25T01:10:14.514Z,0
2019-05-25T01:11:15.187Z,0
2019-05-25T01:12:15.864Z,0
2019-05-25T01:13:16.283Z,0
2019-05-25T01:14:17.003Z,0
2019-05-25T01:15:17.741Z,0
2019-05-25T01:16:18.170Z,0
2019-05-25T01:17:18.875Z,0
2019-05-25T01:18:19.051Z,0
2019-05-25T01:19:19.822Z,0
2019-05-25T01:20:20.234Z,0
2019-05-25T01:21:20.963Z,0
2019-05-25T01:22:21.488Z,0
2019-05-25T01:23:22.188Z,0
2019-05-25T01:24:23.168Z,0
2019-05-25T01:25:24.196Z,0
2019-05-25T01:26:24.908Z,0
2019-05-25T01:27:25.917Z,0
2019-05-25T01:28:25.616Z,0
2019-05-25T01:29:26.329Z,0
2019-05-25T01:30:26.753Z,0
2019-05-25T01:31:26.864Z,0
2019-05-25T01:32:27.848Z,0
2019-05-25T01:33:27.966Z,0
2019-05-25T01:34:28.375Z,0
2019-05-25T01:35:29.458Z,0
2019-05-25T01:36:29.865Z,0
2019-05-25T01:37:30.288Z,0
2019-05-25T01:38:30.685Z,0
2019-05-25T01:39:31.101Z,0
2019-05-25T01:40:31.605Z,0
2019-05-25T01:41:32.018Z,0
2019-05-25T01:42:32.830Z,0
2019-05-25T01:43:32.994Z,0
2019-05-25T01:44:33.404Z,0
2019-05-25T01:45:34.387Z,0
2019-05-25T01:46:34.906Z,0
2019-05-25T01:47:35.306Z,0
2019-05-25T01:48:35.710Z,0
2019-05-25T01:49:36.130Z,0
2019-05-25T01:50:36.552Z,0
2019-05-25T01:51:36.960Z,0
2019-05-25T01:52:38.169Z,0
2019-05-25T01:53:39.138Z,0
2019-05-25T01:54:39.558Z,0
2019-05-25T01:55:39.965Z,0
2019-05-25T01:56:40.391Z,0
2019-05-25T01:57:40.803Z,0
2019-05-25T01:58:41.198Z,0
2019-05-25T01:59:41.603Z,0
2019-05-25T02:00:42.277Z,0
2019-05-25T02:01:42.957Z,0
2019-05-25T02:02:43.219Z,0
2019-05-25T02:03:44.211Z,0
2019-05-25T02:04:44.898Z,0
2019-05-25T02:05:45.045Z,0
2019-05-25T02:06:46.018Z,0
2019-05-25T02:07:46.500Z,0
2019-05-25T02:08:47.187Z,0
2019-05-25T02:09:47.653Z,0
2019-05-25T02:10:47.761Z,0
2019-05-25T02:11:48.453Z,0
2019-05-25T02:12:48.676Z,0
2019-05-25T02:13:49.086Z,0
2019-05-25T02:14:50.123Z,0
2019-05-25T02:15:49.848Z,0
2019-05-25T02:16:50.543Z,0
2019-05-25T02:17:51.526Z,0
2019-05-25T02:18:56.948Z,0
2019-05-25T02:19:52.364Z,0
2019-05-25T02:20:53.107Z,0
2019-05-25T02:21:53.522Z,0
2019-05-25T02:22:54.763Z,0
2019-05-25T02:23:54.891Z,0
2019-05-25T02:24:55.579Z,0
2019-05-25T02:25:55.986Z,0
2019-05-25T02:26:57.290Z,0
2019-05-25T02:27:57.408Z,0
2019-05-25T02:28:57.828Z,0
2019-05-25T02:29:57.979Z,0
2019-05-25T02:30:58.713Z,0
2019-05-25T02:31:59.140Z,0
2019-05-25T02:33:00.008Z,0
2019-05-25T02:33:59.407Z,0
2019-05-25T02:35:00.387Z,0
2019-05-25T02:36:00.796Z,0
2019-05-25T02:37:00.923Z,0
2019-05-25T02:38:01.385Z,0
2019-05-25T02:39:01.806Z,0
2019-05-25T02:40:02.211Z,0
2019-05-25T02:41:02.637Z,0
2019-05-25T02:42:03.051Z,0
2019-05-25T02:43:03.287Z,0
2019-05-25T02:44:03.693Z,0
2019-05-25T02:45:04.086Z,0
2019-05-25T02:46:05.055Z,0
2019-05-25T02:47:05.750Z,0
2019-05-25T02:48:06.740Z,0
2019-05-25T02:49:07.756Z,0
2019-05-25T02:50:08.188Z,0
2019-05-25T02:51:10.133Z,0
2019-05-25T02:52:09.881Z,0
2019-05-25T02:53:10.696Z,0
2019-05-25T02:54:11.407Z,0
2019-05-25T02:55:11.550Z,0
2019-05-25T02:56:11.960Z,0
2019-05-25T02:57:12.078Z,0
2019-05-25T02:58:12.200Z,0
2019-05-25T02:59:12.620Z,0
2019-05-25T03:00:13.032Z,0
2019-05-25T03:01:13.444Z,0
2019-05-25T03:02:14.181Z,0
2019-05-25T03:03:14.823Z,0
2019-05-25T03:04:15.216Z,0
2019-05-25T03:05:15.910Z,0
2019-05-25T03:06:17.727Z,0
2019-05-25T03:07:17.137Z,0
2019-05-25T03:08:17.261Z,0
2019-05-25T03:09:17.792Z,0
2019-05-25T03:10:18.189Z,0
2019-05-25T03:11:18.940Z,0
2019-05-25T03:12:19.631Z,0
2019-05-25T03:13:20.156Z,0
2019-05-25T03:14:20.569Z,0
2019-05-25T03:15:21.377Z,0
2019-05-25T03:16:21.792Z,0
2019-05-25T03:17:22.195Z,0
2019-05-25T03:18:22.336Z,0
2019-05-25T03:19:22.461Z,0
2019-05-25T03:20:22.929Z,0
2019-05-25T03:21:23.361Z,0
2019-05-25T03:22:24.642Z,0
2019-05-25T03:23:24.793Z,0
2019-05-25T03:24:25.795Z,0
2019-05-25T03:25:26.204Z,0
2019-05-25T03:26:26.631Z,0
2019-05-25T03:27:27.038Z,0
2019-05-25T03:28:27.166Z,0
2019-05-25T03:29:27.581Z,0
2019-05-25T03:30:28.439Z,0
2019-05-25T03:31:28.724Z,0
2019-05-25T03:32:30.034Z,0
2019-05-25T03:33:30.454Z,5.63
2019-05-25T03:34:29.874Z,5.63
2019-05-25T03:35:31.462Z,5.63
2019-05-25T03:36:30.891Z,5.63
2019-05-25T03:37:31.335Z,5.63
2019-05-25T03:38:32.045Z,5.63
2019-05-25T03:39:32.464Z,5.63
2019-05-25T03:40:32.876Z,5.63
2019-05-25T03:41:33.285Z,5.63
2019-05-25T03:42:34.024Z,5.63
2019-05-25T03:43:33.957Z,11.25
2019-05-25T03:44:34.670Z,11.25
2019-05-25T03:45:34.800Z,11.25
2019-05-25T03:46:35.203Z,11.25
2019-05-25T03:47:35.657Z,11.25
2019-05-25T03:48:36.053Z,11.25
2019-05-25T03:49:36.177Z,11.25
2019-05-25T03:50:36.576Z,11.25
2019-05-25T03:51:37.264Z,11.25
2019-05-25T03:52:37.693Z,16.88
2019-05-25T03:53:37.953Z,16.88
2019-05-25T03:54:38.664Z,16.88
2019-05-25T03:55:39.338Z,16.88
2019-05-25T03:56:40.035Z,16.88
2019-05-25T03:57:40.159Z,16.88
2019-05-25T03:58:40.874Z,16.88
2019-05-25T03:59:40.998Z,22.5
2019-05-25T04:00:41.495Z,22.5
2019-05-25T04:01:42.327Z,22.5
2019-05-25T04:02:42.522Z,22.5
2019-05-25T04:03:43.783Z,22.5
2019-05-25T04:04:43.967Z,22.5
2019-05-25T04:05:44.091Z,22.5
2019-05-25T04:06:44.792Z,28.13
2019-05-25T04:07:44.920Z,28.13
2019-05-25T04:08:45.048Z,28.13
2019-05-25T04:09:45.167Z,28.13
2019-05-25T04:10:49.170Z,28.13
2019-05-25T04:11:46.300Z,28.13
2019-05-25T04:12:47.004Z,33.75
2019-05-25T04:13:47.301Z,33.75
2019-05-25T04:14:47.432Z,33.75
2019-05-25T04:15:47.828Z,33.75
2019-05-25T04:16:48.243Z,33.75
2019-05-25T04:17:48.662Z,33.75
2019-05-25T04:18:49.650Z,39.38
2019-05-25T04:19:50.358Z,39.38
2019-05-25T04:20:50.479Z,39.38
2019-05-25T04:21:51.469Z,39.38
2019-05-25T04:22:51.862Z,39.38
2019-05-25T04:23:51.798Z,39.38
2019-05-25T04:24:51.915Z,39.38
2019-05-25T04:25:52.339Z,39.38
2019-05-25T04:26:52.463Z,45
2019-05-25T04:27:53.153Z,45
2019-05-25T04:28:53.556Z,45
2019-05-25T04:29:54.262Z,50.63
2019-05-25T04:30:55.018Z,50.63
2019-05-25T04:31:55.770Z,56.25
2019-05-25T04:32:55.967Z,61.88
2019-05-25T04:33:56.940Z,61.88
2019-05-25T04:34:57.338Z,61.88
2019-05-25T04:35:57.759Z,67.5
2019-05-25T04:36:57.882Z,67.5
2019-05-25T04:37:58.591Z,73.13
2019-05-25T04:38:59.784Z,73.13
2019-05-25T04:39:58.902Z,78.75
2019-05-25T04:40:59.330Z,78.75
2019-05-25T04:41:59.725Z,78.75
2019-05-25T04:43:00.147Z,78.75
2019-05-25T04:44:00.387Z,78.75
2019-05-25T04:45:01.415Z,84.38
2019-05-25T04:46:02.119Z,78.75
2019-05-25T04:47:02.822Z,78.75
2019-05-25T04:48:02.974Z,78.75
2019-05-25T04:49:03.372Z,73.13
2019-05-25T04:50:03.792Z,67.5
2019-05-25T04:51:04.192Z,67.5
2019-05-25T04:52:04.689Z,73.13
2019-05-25T04:53:05.106Z,73.13
2019-05-25T04:54:06.101Z,61.88
2019-05-25T04:55:06.814Z,67.5
2019-05-25T04:56:07.228Z,73.13
2019-05-25T04:57:07.830Z,67.5
2019-05-25T04:58:08.584Z,61.88
2019-05-25T04:59:09.011Z,61.88
2019-05-25T05:00:09.438Z,61.88
2019-05-25T05:01:10.144Z,61.88
2019-05-25T05:02:10.875Z,61.88
2019-05-25T05:03:11.864Z,67.5
2019-05-25T05:04:12.421Z,67.5
2019-05-25T05:05:13.545Z,67.5
2019-05-25T05:06:14.245Z,67.5
2019-05-25T05:07:15.525Z,67.5
2019-05-25T05:08:15.938Z,73.13
2019-05-25T05:09:16.954Z,73.13
2019-05-25T05:10:19.974Z,73.13
2019-05-25T05:11:18.382Z,73.13
2019-05-25T05:12:18.781Z,73.13
2019-05-25T05:13:19.539Z,84.38
2019-05-25T05:14:19.494Z,84.38
2019-05-25T05:15:20.535Z,84.38
2019-05-25T05:16:20.649Z,95.63
2019-05-25T05:17:21.342Z,95.63
2019-05-25T05:18:22.098Z,101.25
2019-05-25T05:19:22.526Z,101.25
2019-05-25T05:20:22.647Z,101.25
2019-05-25T05:21:22.771Z,95.63
2019-05-25T05:22:23.464Z,101.25
2019-05-25T05:23:23.586Z,101.25
2019-05-25T05:24:24.884Z,106.88
2019-05-25T05:25:26.448Z,106.88
2019-05-25T05:26:26.162Z,112.5
2019-05-25T05:27:26.278Z,118.13
2019-05-25T05:28:26.714Z,118.13
2019-05-25T05:29:27.406Z,123.75
2019-05-25T05:30:27.879Z,123.75
2019-05-25T05:31:39.253Z,129.38
2019-05-25T05:32:43.418Z,129.38
2019-05-25T05:33:28.839Z,129.38
2019-05-25T05:34:29.077Z,129.38
2019-05-25T05:35:29.585Z,129.38
2019-05-25T05:36:30.282Z,135
2019-05-25T05:37:31.029Z,135
2019-05-25T05:38:32.097Z,135
2019-05-25T05:39:33.109Z,135
2019-05-25T05:40:32.509Z,129.38
2019-05-25T05:41:32.634Z,112.5
2019-05-25T05:42:33.330Z,118.13
2019-05-25T05:43:33.453Z,118.13
2019-05-25T05:44:34.690Z,118.13
2019-05-25T05:45:34.819Z,123.75
2019-05-25T05:46:35.540Z,129.38
2019-05-25T05:47:35.667Z,135
2019-05-25T05:48:36.086Z,140.63
2019-05-25T05:49:36.800Z,151.88
2019-05-25T05:50:37.512Z,157.5
2019-05-25T05:51:38.214Z,163.13
2019-05-25T05:52:38.333Z,163.13
2019-05-25T05:53:38.450Z,168.75
2019-05-25T05:54:39.114Z,174.38
2019-05-25T05:55:39.877Z,174.38
2019-05-25T05:56:40.043Z,151.88
2019-05-25T05:57:40.760Z,140.63
2019-05-25T05:58:41.449Z,140.63
2019-05-25T05:59:41.570Z,140.63
2019-05-25T06:00:41.973Z,140.63
2019-05-25T06:01:42.107Z,135
2019-05-25T06:02:42.803Z,135
2019-05-25T06:03:43.299Z,140.63
2019-05-25T06:04:44.843Z,140.63
2019-05-25T06:05:45.831Z,146.25
2019-05-25T06:06:46.545Z,146.25
2019-05-25T06:07:46.964Z,140.63
2019-05-25T06:08:47.367Z,140.63
2019-05-25T06:09:48.081Z,140.63
2019-05-25T06:10:48.207Z,135
2019-05-25T06:11:48.607Z,129.38
2019-05-25T06:12:49.032Z,123.75
2019-05-25T06:13:49.163Z,123.75
2019-05-25T06:14:50.127Z,118.13
2019-05-25T06:15:50.549Z,118.13
2019-05-25T06:16:50.974Z,112.5
2019-05-25T06:17:51.693Z,112.5
2019-05-25T06:18:52.135Z,112.5
2019-05-25T06:19:53.124Z,112.5
2019-05-25T06:20:53.832Z,112.5
2019-05-25T06:21:54.600Z,112.5
2019-05-25T06:22:55.625Z,118.13
2019-05-25T06:23:56.050Z,118.13
2019-05-25T06:24:56.988Z,123.75
2019-05-25T06:25:57.426Z,129.38
2019-05-25T06:26:58.130Z,135
2019-05-25T06:27:58.537Z,140.63
2019-05-25T06:28:58.663Z,191.25
2019-05-25T06:29:58.795Z,196.88
2019-05-25T06:30:59.267Z,174.38
2019-05-25T06:31:59.968Z,168.75
2019-05-25T06:33:00.096Z,196.88
2019-05-25T06:34:00.229Z,241.88
2019-05-25T06:35:01.479Z,241.88
2019-05-25T06:36:01.899Z,253.13
2019-05-25T06:37:02.017Z,253.13
2019-05-25T06:38:02.730Z,247.5
2019-05-25T06:39:03.137Z,236.25
2019-05-25T06:40:04.145Z,270
2019-05-25T06:41:04.266Z,281.25
2019-05-25T06:42:05.069Z,281.25
2019-05-25T06:43:05.490Z,292.5
2019-05-25T06:44:06.205Z,292.5
2019-05-25T06:45:06.212Z,275.63
2019-05-25T06:46:06.356Z,298.13
2019-05-25T06:47:06.490Z,286.88
2019-05-25T06:48:06.925Z,286.88
2019-05-25T06:49:07.689Z,270
2019-05-25T06:50:07.818Z,247.5
2019-05-25T06:51:07.941Z,236.25
2019-05-25T06:52:08.064Z,236.25
2019-05-25T06:53:09.374Z,219.38
2019-05-25T06:54:08.793Z,213.75
2019-05-25T06:55:09.894Z,219.38
2019-05-25T06:56:10.072Z,230.63
2019-05-25T06:57:10.207Z,236.25
2019-05-25T06:58:10.616Z,230.63
2019-05-25T06:59:11.907Z,236.25
2019-05-25T07:00:12.209Z,241.88
2019-05-25T07:01:12.346Z,253.13
2019-05-25T07:02:12.549Z,247.5
2019-05-25T07:03:13.277Z,247.5
2019-05-25T07:04:13.985Z,253.13
2019-05-25T07:05:13.652Z,292.5
2019-05-25T07:06:14.673Z,264.38
2019-05-25T07:07:14.084Z,258.75
2019-05-25T07:08:14.675Z,258.75
2019-05-25T07:09:15.382Z,264.38
2019-05-25T07:10:16.116Z,270
2019-05-25T07:11:16.522Z,275.63
2019-05-25T07:12:17.218Z,286.88
2019-05-25T07:13:17.930Z,281.25
2019-05-25T07:14:18.062Z,264.38
2019-05-25T07:15:18.929Z,253.13
2019-05-25T07:16:19.056Z,258.75
2019-05-25T07:17:19.183Z,1136.25
2019-05-25T07:18:19.340Z,596.25
2019-05-25T07:19:20.040Z,697.5
2019-05-25T07:20:20.457Z,517.5
2019-05-25T07:21:20.887Z,450
2019-05-25T07:22:21.590Z,568.13
2019-05-25T07:23:22.017Z,804.38
2019-05-25T07:24:22.713Z,978.75
2019-05-25T07:25:25.700Z,1158.75
2019-05-25T07:26:23.825Z,905.63
2019-05-25T07:27:23.957Z,900
2019-05-25T07:28:24.665Z,691.88
2019-05-25T07:29:24.794Z,736.88
2019-05-25T07:30:25.505Z,748.13
2019-05-25T07:31:26.296Z,585
2019-05-25T07:32:27.026Z,455.63
2019-05-25T07:33:27.759Z,725.63
2019-05-25T07:34:28.182Z,663.75
2019-05-25T07:35:29.158Z,652.5
2019-05-25T07:36:29.900Z,472.5
2019-05-25T07:37:30.597Z,568.13
2019-05-25T07:38:30.726Z,601.88
2019-05-25T07:39:31.426Z,455.63
2019-05-25T07:40:31.853Z,517.5
2019-05-25T07:41:32.276Z,450
2019-05-25T07:42:36.132Z,455.63
2019-05-25T07:43:33.849Z,495
2019-05-25T07:44:34.273Z,371.25
2019-05-25T07:45:35.283Z,489.38
2019-05-25T07:46:35.962Z,708.75
2019-05-25T07:47:36.174Z,883.13
2019-05-25T07:48:36.946Z,793.13
2019-05-25T07:49:37.946Z,1136.25
2019-05-25T07:50:38.752Z,1012.5
2019-05-25T07:51:39.163Z,573.75
2019-05-25T07:52:39.299Z,658.13
2019-05-25T07:53:39.502Z,984.38
2019-05-25T07:54:39.942Z,1113.75
2019-05-25T07:55:40.206Z,1231.88
2019-05-25T07:56:40.342Z,838.13
2019-05-25T07:57:44.614Z,939.38
2019-05-25T07:58:40.743Z,1541.25
2019-05-25T07:59:41.463Z,1541.25
2019-05-25T08:00:41.603Z,1310.63
2019-05-25T08:01:42.636Z,1423.13
2019-05-25T08:02:43.348Z,1321.88
2019-05-25T08:03:45.501Z,990
2019-05-25T08:04:44.231Z,990
2019-05-25T08:05:44.821Z,978.75
2019-05-25T08:06:46.012Z,1012.5
2019-05-25T08:07:45.826Z,1068.75
2019-05-25T08:08:46.266Z,1057.5
2019-05-25T08:09:46.412Z,1226.25
2019-05-25T08:10:46.845Z,1102.5
2019-05-25T08:11:47.582Z,1080
2019-05-25T08:12:48.621Z,1265.63
2019-05-25T08:13:49.055Z,1080
2019-05-25T08:14:50.356Z,1018.13
2019-05-25T08:15:50.041Z,815.63
2019-05-25T08:16:51.075Z,736.88
2019-05-25T08:17:52.098Z,731.25
2019-05-25T08:18:52.599Z,855
2019-05-25T08:19:53.639Z,928.13
2019-05-25T08:20:53.638Z,900
2019-05-25T08:21:54.383Z,945
2019-05-25T08:22:54.818Z,995.63
2019-05-25T08:23:55.234Z,1085.63
2019-05-25T08:24:56.286Z,1260
2019-05-25T08:25:56.114Z,1220.63
2019-05-25T08:26:56.567Z,1057.5
2019-05-25T08:27:57.274Z,860.63
2019-05-25T08:28:57.688Z,770.63
2019-05-25T08:29:58.115Z,765
2019-05-25T08:31:01.258Z,888.75
2019-05-25T08:31:58.805Z,821.25
2019-05-25T08:32:58.939Z,1203.75
2019-05-25T08:33:59.115Z,860.63
2019-05-25T08:34:59.564Z,1029.38
2019-05-25T08:36:03.324Z,1215
2019-05-25T08:37:00.733Z,1136.25
2019-05-25T08:38:01.446Z,1265.63
2019-05-25T08:39:05.516Z,1310.63
2019-05-25T08:40:03.225Z,1271.25
2019-05-25T08:41:03.367Z,1203.75
2019-05-25T08:42:03.809Z,1175.63
2019-05-25T08:43:04.580Z,1215
2019-05-25T08:44:06.403Z,978.75
2019-05-25T08:45:05.836Z,1243.13
2019-05-25T08:46:06.092Z,1108.13
2019-05-25T08:47:07.103Z,1293.75
2019-05-25T08:48:08.479Z,1147.5
2019-05-25T08:49:07.890Z,883.13
2019-05-25T08:50:08.309Z,973.13
2019-05-25T08:51:10.719Z,984.38
2019-05-25T08:52:14.851Z,838.13
2019-05-25T08:53:10.112Z,950.63
2019-05-25T08:54:09.262Z,714.38
2019-05-25T08:55:09.968Z,748.13
2019-05-25T08:56:10.822Z,720
2019-05-25T08:57:14.970Z,945
2019-05-25T08:58:12.491Z,675
2019-05-25T08:59:12.621Z,950.63
2019-05-25T09:00:13.671Z,945
2019-05-25T09:01:14.424Z,601.88
2019-05-25T09:02:15.281Z,742.5
2019-05-25T09:03:15.990Z,843.75
2019-05-25T09:04:16.126Z,961.88
2019-05-25T09:05:17.246Z,883.13
2019-05-25T09:06:18.155Z,956.25
2019-05-25T09:07:18.587Z,928.13
2019-05-25T09:08:19.002Z,804.38
2019-05-25T09:09:19.470Z,798.75
2019-05-25T09:10:20.375Z,826.88
2019-05-25T09:11:20.511Z,759.38
2019-05-25T09:12:21.522Z,691.88
2019-05-25T09:13:21.717Z,686.25
2019-05-25T09:14:21.851Z,714.38
2019-05-25T09:15:22.479Z,675
2019-05-25T09:16:23.333Z,736.88
2019-05-25T09:17:24.051Z,787.5
2019-05-25T09:18:24.481Z,753.75
2019-05-25T09:19:24.612Z,776.25
2019-05-25T09:20:25.353Z,736.88
2019-05-25T09:21:25.522Z,736.88
2019-05-25T09:22:25.658Z,742.5
2019-05-25T09:23:26.096Z,759.38
2019-05-25T09:24:26.532Z,714.38
2019-05-25T09:25:27.650Z,669.38
2019-05-25T09:26:29.967Z,652.5
2019-05-25T09:27:27.689Z,635.63
2019-05-25T09:28:28.377Z,686.25
2019-05-25T09:29:29.102Z,731.25
2019-05-25T09:30:29.537Z,770.63
2019-05-25T09:31:30.058Z,742.5
2019-05-25T09:32:30.460Z,686.25
2019-05-25T09:33:31.171Z,714.38
2019-05-25T09:34:31.302Z,725.63
2019-05-25T09:35:31.742Z,697.5
2019-05-25T09:36:32.721Z,663.75
2019-05-25T09:37:33.430Z,675
2019-05-25T09:38:33.569Z,675
2019-05-25T09:39:34.022Z,652.5
2019-05-25T09:40:35.053Z,675
2019-05-25T09:41:35.539Z,641.25
2019-05-25T09:42:36.925Z,579.38
2019-05-25T09:43:39.521Z,551.25
2019-05-25T09:44:38.567Z,523.13
2019-05-25T09:45:38.995Z,489.38
2019-05-25T09:46:40.262Z,478.13
2019-05-25T09:47:40.691Z,466.88
2019-05-25T09:48:43.385Z,455.63
2019-05-25T09:49:41.599Z,461.25
2019-05-25T09:50:42.019Z,472.5
2019-05-25T09:51:42.450Z,466.88
2019-05-25T09:52:43.136Z,461.25
2019-05-25T09:53:43.563Z,450
2019-05-25T09:54:43.755Z,450
2019-05-25T09:55:44.177Z,461.25
2019-05-25T09:56:44.413Z,444.38
2019-05-25T09:57:47.224Z,421.88
2019-05-25T09:58:45.982Z,421.88
2019-05-25T09:59:46.110Z,388.13
2019-05-25T10:00:51.395Z,376.88
2019-05-25T10:01:47.261Z,376.88
2019-05-25T10:02:49.219Z,399.38
2019-05-25T10:03:48.375Z,388.13
2019-05-25T10:04:48.809Z,393.75
2019-05-25T10:05:49.795Z,410.63
2019-05-25T10:06:49.481Z,427.5
2019-05-25T10:07:49.908Z,416.25
2019-05-25T10:08:50.904Z,382.5
2019-05-25T10:09:51.081Z,376.88
2019-05-25T10:10:51.794Z,388.13
2019-05-25T10:11:52.575Z,399.38
2019-05-25T10:12:53.004Z,399.38
2019-05-25T10:13:53.448Z,393.75
2019-05-25T10:14:53.860Z,371.25
2019-05-25T10:15:54.567Z,382.5
2019-05-25T10:16:54.542Z,399.38
2019-05-25T10:17:55.260Z,410.63
2019-05-25T10:18:55.721Z,427.5
2019-05-25T10:19:56.734Z,433.13
2019-05-25T10:20:56.867Z,427.5
2019-05-25T10:21:59.466Z,427.5
2019-05-25T10:22:58.036Z,416.25
2019-05-25T10:23:59.336Z,483.75
2019-05-25T10:24:58.769Z,495
2019-05-25T10:25:59.541Z,466.88
2019-05-25T10:27:00.163Z,556.88
2019-05-25T10:28:00.620Z,585
2019-05-25T10:29:01.385Z,562.5
2019-05-25T10:30:01.898Z,528.75
2019-05-25T10:31:02.301Z,562.5
2019-05-25T10:32:02.712Z,568.13
2019-05-25T10:33:03.143Z,540
2019-05-25T10:34:03.843Z,528.75
2019-05-25T10:35:04.574Z,523.13
2019-05-25T10:36:05.054Z,500.63
2019-05-25T10:37:05.306Z,483.75
2019-05-25T10:38:06.016Z,461.25
2019-05-25T10:39:07.138Z,466.88
2019-05-25T10:40:07.257Z,455.63
2019-05-25T10:41:09.281Z,450
2019-05-25T10:42:07.706Z,450
2019-05-25T10:43:08.127Z,478.13
2019-05-25T10:44:08.317Z,500.63
2019-05-25T10:45:09.041Z,489.38
2019-05-25T10:46:09.471Z,495
2019-05-25T10:47:10.294Z,483.75
2019-05-25T10:48:11.010Z,489.38
2019-05-25T10:49:11.865Z,495
2019-05-25T10:50:11.367Z,506.25
2019-05-25T10:51:12.034Z,545.63
2019-05-25T10:52:12.507Z,585
2019-05-25T10:53:12.939Z,635.63
2019-05-25T10:54:13.368Z,646.88
2019-05-25T10:55:14.104Z,663.75
2019-05-25T10:56:14.242Z,691.88
2019-05-25T10:57:18.793Z,697.5
2019-05-25T10:58:16.230Z,641.25
2019-05-25T10:59:16.381Z,669.38
2019-05-25T11:00:17.111Z,663.75
2019-05-25T11:01:17.815Z,641.25
2019-05-25T11:02:18.539Z,517.5
2019-05-25T11:03:18.999Z,551.25
2019-05-25T11:04:19.715Z,579.38
2019-05-25T11:05:20.127Z,573.75
2019-05-25T11:06:20.837Z,596.25
2019-05-25T11:07:20.982Z,618.75
2019-05-25T11:08:21.433Z,646.88
2019-05-25T11:09:21.558Z,697.5
2019-05-25T11:10:22.325Z,601.88
2019-05-25T11:11:23.064Z,663.75
2019-05-25T11:12:25.980Z,675
2019-05-25T11:13:23.510Z,680.63
2019-05-25T11:14:23.637Z,568.13
2019-05-25T11:15:24.047Z,528.75
2019-05-25T11:16:25.110Z,568.13
2019-05-25T11:17:25.692Z,641.25
2019-05-25T11:18:26.413Z,630
2019-05-25T11:19:29.834Z,697.5
2019-05-25T11:20:27.265Z,635.63
2019-05-25T11:21:27.695Z,618.75
2019-05-25T11:22:28.151Z,601.88
2019-05-25T11:23:28.319Z,556.88
2019-05-25T11:24:28.807Z,556.88
2019-05-25T11:25:28.935Z,568.13
2019-05-25T11:26:29.066Z,562.5
2019-05-25T11:27:30.469Z,506.25
2019-05-25T11:28:31.474Z,450
2019-05-25T11:29:31.894Z,405
2019-05-25T11:30:32.597Z,371.25
2019-05-25T11:31:32.740Z,354.38
2019-05-25T11:32:33.456Z,343.13
2019-05-25T11:33:36.424Z,331.88
2019-05-25T11:34:35.201Z,326.25
2019-05-25T11:35:35.610Z,320.63
2019-05-25T11:36:36.027Z,303.75
2019-05-25T11:37:36.566Z,298.13
2019-05-25T11:38:36.979Z,286.88
2019-05-25T11:39:37.405Z,281.25
2019-05-25T11:40:37.896Z,275.63
2019-05-25T11:41:38.617Z,264.38
2019-05-25T11:42:38.758Z,258.75
2019-05-25T11:43:39.177Z,258.75
2019-05-25T11:44:39.362Z,241.88
2019-05-25T11:45:39.507Z,241.88
2019-05-25T11:46:39.957Z,241.88
2019-05-25T11:47:40.220Z,236.25
2019-05-25T11:48:40.939Z,236.25
2019-05-25T11:49:41.373Z,236.25
2019-05-25T11:50:42.129Z,241.88
2019-05-25T11:51:42.261Z,236.25
2019-05-25T11:52:43.619Z,236.25
2019-05-25T11:53:43.058Z,230.63
2019-05-25T11:54:43.478Z,230.63
2019-05-25T11:55:43.921Z,225
2019-05-25T11:56:44.346Z,230.63
2019-05-25T11:57:44.870Z,230.63
2019-05-25T11:58:58.601Z,236.25
2019-05-25T11:59:46.025Z,241.88
2019-05-25T12:00:46.447Z,236.25
2019-05-25T12:01:46.863Z,236.25
2019-05-25T12:02:47.595Z,236.25
2019-05-25T12:03:48.627Z,230.63
2019-05-25T12:04:49.337Z,219.38
2019-05-25T12:05:49.821Z,225
2019-05-25T12:06:49.951Z,208.13
2019-05-25T12:07:55.878Z,196.88
2019-05-25T12:08:51.875Z,191.25
2019-05-25T12:09:52.012Z,185.63
2019-05-25T12:10:52.802Z,185.63
2019-05-25T12:11:53.844Z,185.63
2019-05-25T12:12:53.983Z,191.25
2019-05-25T12:13:54.696Z,196.88
2019-05-25T12:14:54.829Z,202.5
2019-05-25T12:15:55.535Z,202.5
2019-05-25T12:16:55.939Z,202.5
2019-05-25T12:17:57.494Z,202.5
2019-05-25T12:18:57.242Z,202.5
2019-05-25T12:19:57.655Z,202.5
2019-05-25T12:20:57.802Z,196.88
2019-05-25T12:21:58.497Z,196.88
2019-05-25T12:22:59.206Z,196.88
2019-05-25T12:23:59.882Z,196.88
2019-05-25T12:25:00.020Z,191.25
2019-05-25T12:26:00.435Z,191.25
2019-05-25T12:27:01.144Z,191.25
2019-05-25T12:28:05.394Z,185.63
2019-05-25T12:29:01.801Z,180
2019-05-25T12:30:01.934Z,174.38
2019-05-25T12:31:02.081Z,163.13
2019-05-25T12:32:09.838Z,157.5
2019-05-25T12:33:03.248Z,151.88
2019-05-25T12:34:03.669Z,151.88
2019-05-25T12:35:03.800Z,151.88
2019-05-25T12:36:04.225Z,146.25
2019-05-25T12:37:04.951Z,140.63
2019-05-25T12:38:05.785Z,129.38
2019-05-25T12:39:06.206Z,118.13
2019-05-25T12:40:06.607Z,118.13
2019-05-25T12:41:10.203Z,112.5
2019-05-25T12:42:07.925Z,106.88
2019-05-25T12:43:08.334Z,101.25
2019-05-25T12:44:08.741Z,95.63
2019-05-25T12:45:09.883Z,95.63
2019-05-25T12:46:09.076Z,95.63
2019-05-25T12:47:09.502Z,90
2019-05-25T12:48:09.738Z,95.63
2019-05-25T12:49:10.449Z,95.63
2019-05-25T12:50:11.009Z,95.63
2019-05-25T12:51:11.987Z,95.63
2019-05-25T12:52:12.123Z,101.25
2019-05-25T12:53:12.552Z,101.25
2019-05-25T12:54:13.242Z,106.88
2019-05-25T12:55:14.307Z,112.5
2019-05-25T12:56:14.717Z,123.75
2019-05-25T12:57:19.039Z,129.38
2019-05-25T12:58:15.819Z,146.25
2019-05-25T12:59:16.825Z,163.13
2019-05-25T13:00:31.815Z,202.5
2019-05-25T13:01:18.234Z,225
2019-05-25T13:02:18.963Z,241.88
2019-05-25T13:03:21.832Z,258.75
2019-05-25T13:04:19.998Z,270
2019-05-25T13:05:32.856Z,286.88
2019-05-25T13:06:23.527Z,298.13
2019-05-25T13:07:21.650Z,320.63
2019-05-25T13:08:22.900Z,348.75
2019-05-25T13:09:23.027Z,343.13
2019-05-25T13:10:23.743Z,343.13
2019-05-25T13:11:25.862Z,354.38
2019-05-25T13:12:24.987Z,309.38
2019-05-25T13:13:25.693Z,337.5
2019-05-25T13:14:30.805Z,309.38
2019-05-25T13:15:26.227Z,309.38
2019-05-25T13:16:28.028Z,286.88
2019-05-25T13:17:27.749Z,270
2019-05-25T13:18:27.424Z,275.63
2019-05-25T13:19:27.551Z,275.63